createdAt,value
2023-02-11T00:00:02.370Z,71.09
2023-02-11T00:00:14.866Z,71.22
2023-02-11T00:00:22.176Z,70.33
2023-02-11T00:00:29.288Z,70.69
2023-02-11T00:00:39.035Z,70.64
2023-02-11T00:00:58.175Z,70.79
2023-02-11T00:01:08.129Z,70.68
2023-02-11T00:01:19.557Z,70.87
2023-02-11T00:01:27.576Z,71.15
2023-02-11T00:01:35.911Z,71.00
2023-02-11T00:01:43.012Z,71.12
2023-02-11T00:01:50.101Z,70.57
2023-02-11T00:02:09.260Z,71.10
2023-02-11T00:02:16.424Z,70.52
2023-02-11T00:02:23.879Z,70.90
2023-02-11T00:02:33.184Z,70.90
2023-02-11T00:02:40.804Z,70.75
2023-02-11T00:02:48.182Z,70.94
2023-02-11T00:03:07.344Z,71.05
2023-02-11T00:03:14.399Z,71.00
2023-02-11T00:03:21.517Z,70.71
2023-02-11T00:03:28.719Z,70.93
2023-02-11T00:03:48.030Z,70.92
2023-02-11T00:03:56.430Z,70.76
2023-02-11T00:04:04.290Z,71.00
2023-02-11T00:04:11.376Z,70.89
2023-02-11T00:04:18.411Z,70.85
2023-02-11T00:04:33.115Z,70.62
2023-02-11T00:04:40.180Z,70.92
2023-02-11T00:05:01.572Z,70.96
2023-02-11T00:05:08.708Z,70.81
2023-02-11T00:05:17.010Z,70.45
2023-02-11T00:05:24.048Z,70.81
2023-02-11T00:05:31.187Z,70.61
2023-02-11T00:05:38.399Z,70.50
2023-02-11T00:05:58.747Z,70.70
2023-02-11T00:06:09.313Z,70.75
2023-02-11T00:06:16.815Z,70.87
2023-02-11T00:06:25.516Z,70.75
2023-02-11T00:06:33.556Z,71.07
2023-02-11T00:06:40.611Z,70.42
2023-02-11T00:06:59.616Z,70.99
2023-02-11T00:07:06.619Z,70.80
2023-02-11T00:07:13.682Z,71.01
2023-02-11T00:07:20.728Z,70.78
2023-02-11T00:07:29.094Z,70.58
2023-02-11T00:07:44.205Z,71.03
2023-02-11T00:07:51.278Z,70.75
2023-02-11T00:07:58.353Z,70.97
2023-02-11T00:08:17.702Z,70.73
2023-02-11T00:08:25.353Z,70.71
2023-02-11T00:08:32.473Z,71.11
2023-02-11T00:08:39.585Z,70.99
2023-02-11T00:08:55.035Z,70.61
2023-02-11T00:09:02.178Z,70.82
2023-02-11T00:09:10.709Z,70.59
2023-02-11T00:09:17.869Z,70.85
2023-02-11T00:09:32.339Z,71.17
2023-02-11T00:09:39.376Z,70.76
2023-02-11T00:09:53.442Z,71.01
2023-02-11T00:10:00.543Z,70.86
2023-02-11T00:10:09.041Z,70.65
2023-02-11T00:10:23.238Z,70.81
2023-02-11T00:10:30.401Z,70.74
2023-02-11T00:10:51.832Z,71.08
2023-02-11T00:10:59.432Z,71.08
2023-02-11T00:11:06.562Z,70.83
2023-02-11T00:11:14.842Z,71.10
2023-02-11T00:11:22.696Z,70.63
2023-02-11T00:11:30.662Z,70.76
2023-02-11T00:11:38.806Z,70.62
2023-02-11T00:11:58.011Z,71.09
2023-02-11T00:12:05.354Z,70.79
2023-02-11T00:12:12.475Z,70.96
2023-02-11T00:12:19.752Z,70.86
2023-02-11T00:12:38.927Z,70.84
2023-02-11T00:12:45.992Z,70.93
2023-02-11T00:12:53.146Z,70.93
2023-02-11T00:13:01.386Z,71.32
2023-02-11T00:13:08.442Z,70.61
2023-02-11T00:13:27.841Z,70.55
2023-02-11T00:13:35.002Z,70.95
2023-02-11T00:13:42.202Z,70.78
2023-02-11T00:13:49.429Z,70.66
2023-02-11T00:14:05.006Z,71.00
2023-02-11T00:14:12.298Z,70.36
2023-02-11T00:14:20.450Z,70.79
2023-02-11T00:14:39.674Z,70.70
2023-02-11T00:14:46.779Z,70.85
2023-02-11T00:14:53.867Z,70.53
2023-02-11T00:15:01.012Z,70.42
2023-02-11T00:15:08.682Z,70.81
2023-02-11T00:15:27.679Z,70.86
2023-02-11T00:15:34.772Z,70.66
2023-02-11T00:15:41.856Z,70.63
2023-02-11T00:15:49.425Z,70.86
2023-02-11T00:15:57.990Z,70.47
2023-02-11T00:16:14.783Z,70.90
2023-02-11T00:16:22.262Z,70.48
2023-02-11T00:16:29.639Z,70.61
2023-02-11T00:16:48.797Z,70.76
2023-02-11T00:16:55.958Z,70.91
2023-02-11T00:17:04.137Z,70.28
2023-02-11T00:17:11.227Z,70.61
2023-02-11T00:17:18.298Z,70.23
2023-02-11T00:17:37.360Z,70.39
2023-02-11T00:17:44.439Z,70.79
2023-02-11T00:17:51.547Z,70.84
2023-02-11T00:17:58.854Z,70.66
2023-02-11T00:18:13.039Z,70.42
2023-02-11T00:18:20.136Z,70.59
2023-02-11T00:18:28.002Z,70.50
2023-02-11T00:18:50.625Z,70.38
2023-02-11T00:18:59.396Z,70.38
2023-02-11T00:19:06.776Z,70.50
2023-02-11T00:19:13.828Z,70.29
2023-02-11T00:19:20.922Z,70.14
2023-02-11T00:19:28.194Z,70.04
2023-02-11T00:19:49.483Z,70.71
2023-02-11T00:19:56.496Z,70.52
2023-02-11T00:20:07.908Z,70.43
2023-02-11T00:20:16.560Z,70.55
2023-02-11T00:20:23.594Z,70.21
2023-02-11T00:20:30.706Z,70.61
2023-02-11T00:20:39.759Z,70.57
2023-02-11T00:20:58.776Z,70.64
2023-02-11T00:21:06.601Z,70.21
2023-02-11T00:21:15.161Z,70.68
2023-02-11T00:21:23.180Z,70.51
2023-02-11T00:21:30.393Z,70.26
2023-02-11T00:21:38.494Z,70.59
2023-02-11T00:21:52.486Z,69.82
2023-02-11T00:21:59.570Z,70.04
2023-02-11T00:22:18.702Z,70.06
2023-02-11T00:22:25.777Z,70.69
2023-02-11T00:22:32.836Z,70.15
2023-02-11T00:22:39.992Z,70.27
2023-02-11T00:22:59.088Z,70.44
2023-02-11T00:23:06.157Z,70.29
2023-02-11T00:23:14.685Z,70.62
2023-02-11T00:23:21.778Z,70.39
2023-02-11T00:23:28.945Z,70.39
2023-02-11T00:23:43.160Z,70.64
2023-02-11T00:23:50.333Z,70.30
2023-02-11T00:23:58.730Z,70.02
2023-02-11T00:24:18.114Z,70.53
2023-02-11T00:24:25.222Z,70.15
2023-02-11T00:24:32.405Z,70.35
2023-02-11T00:24:40.498Z,70.47
2023-02-11T00:24:47.744Z,70.11
2023-02-11T00:25:01.993Z,70.26
2023-02-11T00:25:09.094Z,70.65
2023-02-11T00:25:28.229Z,70.70
2023-02-11T00:25:38.661Z,70.61
2023-02-11T00:25:46.136Z,70.33
2023-02-11T00:25:53.392Z,70.49
2023-02-11T00:26:01.625Z,70.48
2023-02-11T00:26:15.209Z,70.43
2023-02-11T00:26:24.350Z,69.99
2023-02-11T00:26:33.351Z,70.62
2023-02-11T00:26:40.456Z,70.20
2023-02-11T00:26:59.676Z,70.40
2023-02-11T00:27:06.876Z,70.37
2023-02-11T00:27:14.966Z,70.25
2023-02-11T00:27:22.156Z,70.06
2023-02-11T00:27:29.244Z,69.91
2023-02-11T00:27:44.196Z,69.64
2023-02-11T00:27:52.487Z,70.22
2023-02-11T00:27:59.581Z,69.96
2023-02-11T00:28:20.712Z,69.68
2023-02-11T00:28:27.903Z,70.25
2023-02-11T00:28:36.121Z,69.70
2023-02-11T00:28:43.479Z,69.70
2023-02-11T00:28:51.713Z,69.70
2023-02-11T00:28:59.225Z,69.60
2023-02-11T00:29:20.766Z,69.73
2023-02-11T00:29:27.874Z,69.81
2023-02-11T00:29:35.175Z,69.88
2023-02-11T00:29:43.492Z,69.60
2023-02-11T00:29:50.518Z,69.61
2023-02-11T00:30:12.809Z,69.73
2023-02-11T00:30:20.008Z,69.44
2023-02-11T00:30:27.108Z,70.01
2023-02-11T00:30:34.291Z,69.81
2023-02-11T00:30:41.467Z,69.65
2023-02-11T00:30:54.586Z,69.84
2023-02-11T00:31:02.713Z,70.15
2023-02-11T00:31:09.988Z,69.98
2023-02-11T00:31:18.563Z,70.12
2023-02-11T00:31:38.959Z,70.22
2023-02-11T00:31:46.257Z,70.10
2023-02-11T00:31:53.418Z,69.60
2023-02-11T00:32:05.246Z,69.61
2023-02-11T00:32:12.401Z,69.93
2023-02-11T00:32:19.462Z,69.82
2023-02-11T00:32:39.933Z,69.58
2023-02-11T00:32:47.014Z,70.11
2023-02-11T00:32:54.087Z,69.87
2023-02-11T00:33:01.280Z,69.33
2023-02-11T00:33:08.331Z,70.13
2023-02-11T00:33:27.391Z,70.05
2023-02-11T00:33:34.445Z,70.07
2023-02-11T00:33:42.051Z,70.01
2023-02-11T00:33:49.325Z,70.11
2023-02-11T00:34:09.391Z,69.70
2023-02-11T00:34:16.916Z,69.94
2023-02-11T00:34:24.031Z,69.42
2023-02-11T00:34:31.122Z,69.66
2023-02-11T00:34:38.357Z,69.97
2023-02-11T00:34:57.867Z,70.08
2023-02-11T00:35:06.849Z,69.75
2023-02-11T00:35:13.888Z,69.95
2023-02-11T00:35:21.006Z,69.72
2023-02-11T00:35:30.857Z,69.90
2023-02-11T00:35:39.149Z,69.72
2023-02-11T00:35:48.446Z,69.48
2023-02-11T00:36:09.601Z,69.42
2023-02-11T00:36:18.195Z,69.00
2023-02-11T00:36:28.169Z,69.19
2023-02-11T00:36:35.314Z,69.51
2023-02-11T00:36:43.459Z,69.57
2023-02-11T00:36:50.583Z,69.64
2023-02-11T00:36:57.723Z,69.53
2023-02-11T00:37:13.693Z,70.14
2023-02-11T00:37:22.342Z,69.72
2023-02-11T00:37:29.462Z,69.32
2023-02-11T00:37:43.623Z,69.55
2023-02-11T00:37:53.154Z,69.46
2023-02-11T00:38:00.520Z,69.62
2023-02-11T00:38:14.674Z,69.70
2023-02-11T00:38:21.741Z,69.66
2023-02-11T00:38:28.771Z,69.61
2023-02-11T00:38:50.095Z,69.36
2023-02-11T00:38:57.960Z,70.18
2023-02-11T00:39:05.250Z,69.69
2023-02-11T00:39:12.374Z,69.95
2023-02-11T00:39:19.491Z,69.83
2023-02-11T00:39:39.093Z,69.96
2023-02-11T00:39:46.194Z,69.35
2023-02-11T00:39:53.260Z,69.86
2023-02-11T00:40:00.402Z,69.41
2023-02-11T00:40:08.869Z,69.47
2023-02-11T00:40:28.178Z,69.89
2023-02-11T00:40:35.351Z,69.28
2023-02-11T00:40:43.882Z,69.47
2023-02-11T00:40:50.990Z,69.33
2023-02-11T00:40:58.094Z,69.32
2023-02-11T00:41:18.048Z,69.43
2023-02-11T00:41:25.280Z,69.57
2023-02-11T00:41:33.701Z,69.44
2023-02-11T00:41:40.920Z,69.29
2023-02-11T00:41:48.006Z,69.48
2023-02-11T00:42:02.046Z,69.58
2023-02-11T00:42:09.393Z,69.05
2023-02-11T00:42:28.630Z,69.32
2023-02-11T00:42:36.214Z,69.41
2023-02-11T00:42:43.353Z,69.56
2023-02-11T00:42:50.424Z,69.43
2023-02-11T00:42:57.750Z,69.55
2023-02-11T00:43:17.845Z,69.37
2023-02-11T00:43:25.248Z,69.19
2023-02-11T00:43:32.422Z,69.68
2023-02-11T00:43:39.690Z,69.28
2023-02-11T00:43:59.391Z,69.07
2023-02-11T00:44:06.467Z,69.48
2023-02-11T00:44:13.577Z,69.46
2023-02-11T00:44:21.305Z,69.78
2023-02-11T00:44:28.358Z,69.34
2023-02-11T00:44:42.506Z,69.46
2023-02-11T00:44:50.984Z,69.70
2023-02-11T00:44:58.243Z,69.82
2023-02-11T00:45:17.590Z,69.50
2023-02-11T00:45:24.683Z,69.88
2023-02-11T00:45:31.873Z,69.87
2023-02-11T00:45:38.965Z,69.66
2023-02-11T00:45:58.330Z,69.70
2023-02-11T00:46:05.919Z,69.73
2023-02-11T00:46:14.542Z,69.54
2023-02-11T00:46:21.823Z,69.65
2023-02-11T00:46:29.178Z,69.94
2023-02-11T00:46:43.275Z,69.97
2023-02-11T00:46:50.830Z,70.01
2023-02-11T00:46:57.881Z,69.81
2023-02-11T00:47:17.015Z,69.61
2023-02-11T00:47:24.792Z,69.51
2023-02-11T00:47:31.867Z,69.43
2023-02-11T00:47:41.170Z,69.22
2023-02-11T00:47:48.423Z,69.39
2023-02-11T00:48:08.735Z,69.24
2023-02-11T00:48:15.846Z,69.50
2023-02-11T00:48:22.964Z,69.63
2023-02-11T00:48:30.286Z,69.66
2023-02-11T00:48:49.363Z,69.27
2023-02-11T00:48:58.062Z,69.65
2023-02-11T00:49:05.224Z,69.89
2023-02-11T00:49:12.343Z,69.79
2023-02-11T00:49:20.488Z,69.67
2023-02-11T00:49:28.922Z,69.23
2023-02-11T00:49:49.074Z,69.67
2023-02-11T00:49:56.174Z,69.55
2023-02-11T00:50:05.339Z,69.70
2023-02-11T00:50:14.067Z,69.48
2023-02-11T00:50:21.101Z,69.55
2023-02-11T00:50:28.673Z,69.71
2023-02-11T00:50:48.124Z,69.75
2023-02-11T00:50:55.275Z,69.66
2023-02-11T00:51:04.274Z,69.72
2023-02-11T00:51:11.657Z,69.86
2023-02-11T00:51:18.934Z,70.05
2023-02-11T00:51:39.092Z,69.93
2023-02-11T00:51:46.384Z,69.82
2023-02-11T00:51:53.539Z,70.06
2023-02-11T00:52:00.660Z,70.04
2023-02-11T00:52:07.783Z,69.83
2023-02-11T00:52:28.079Z,69.76
2023-02-11T00:52:35.154Z,69.80
2023-02-11T00:52:42.773Z,69.86
2023-02-11T00:52:49.901Z,70.11
2023-02-11T00:53:04.032Z,70.04
2023-02-11T00:53:11.275Z,69.84
2023-02-11T00:53:19.256Z,69.88
2023-02-11T00:53:34.408Z,69.86
2023-02-11T00:53:41.814Z,70.06
2023-02-11T00:53:50.118Z,70.10
2023-02-11T00:54:09.184Z,70.32
2023-02-11T00:54:16.498Z,70.06
2023-02-11T00:54:23.696Z,69.99
2023-02-11T00:54:30.904Z,69.71
2023-02-11T00:54:38.000Z,69.86
2023-02-11T00:54:58.568Z,70.14
2023-02-11T00:55:05.944Z,70.08
2023-02-11T00:55:13.128Z,70.03
2023-02-11T00:55:20.183Z,70.30
2023-02-11T00:55:40.334Z,69.82
2023-02-11T00:55:47.591Z,69.64
2023-02-11T00:55:54.863Z,70.20
2023-02-11T00:56:02.112Z,70.13
2023-02-11T00:56:09.239Z,70.20
2023-02-11T00:56:23.401Z,69.98
2023-02-11T00:56:30.573Z,70.03
2023-02-11T00:56:49.810Z,70.10
2023-02-11T00:56:57.533Z,69.91
2023-02-11T00:57:05.007Z,70.27
2023-02-11T00:57:12.185Z,70.38
2023-02-11T00:57:19.502Z,70.29
2023-02-11T00:57:34.789Z,69.98
2023-02-11T00:57:41.873Z,69.55
2023-02-11T00:57:48.941Z,69.89
2023-02-11T00:58:04.157Z,69.66
2023-02-11T00:58:11.219Z,69.84
2023-02-11T00:58:20.399Z,69.83
2023-02-11T00:58:30.452Z,69.83
2023-02-11T00:58:39.918Z,69.55
2023-02-11T00:58:48.083Z,70.22
2023-02-11T00:59:07.153Z,70.12
2023-02-11T00:59:14.265Z,70.13
2023-02-11T00:59:24.316Z,69.52
2023-02-11T00:59:31.407Z,69.84
2023-02-11T00:59:38.407Z,70.09
2023-02-11T00:59:53.568Z,70.20
2023-02-11T01:00:00.683Z,69.95
2023-02-11T01:00:14.969Z,70.13
2023-02-11T01:00:23.361Z,70.37
2023-02-11T01:00:30.448Z,70.08
2023-02-11T01:00:49.630Z,70.14
2023-02-11T01:00:56.822Z,70.11
2023-02-11T01:01:05.432Z,70.09
2023-02-11T01:01:13.036Z,70.16
2023-02-11T01:01:20.409Z,70.14
2023-02-11T01:01:35.861Z,69.82
2023-02-11T01:01:43.007Z,70.30
2023-02-11T01:01:50.369Z,70.04
2023-02-11T01:02:04.532Z,70.19
2023-02-11T01:02:11.917Z,69.77
2023-02-11T01:02:23.163Z,70.32
2023-02-11T01:02:30.506Z,70.22
2023-02-11T01:02:50.811Z,70.32
2023-02-11T01:02:59.078Z,69.89
2023-02-11T01:03:06.326Z,70.11
2023-02-11T01:03:15.459Z,70.08
2023-02-11T01:03:22.576Z,70.10
2023-02-11T01:03:29.988Z,70.04
2023-02-11T01:03:49.136Z,69.78
2023-02-11T01:03:56.286Z,70.14
2023-02-11T01:04:03.696Z,69.87
2023-02-11T01:04:10.961Z,69.80
2023-02-11T01:04:19.069Z,69.85
2023-02-11T01:04:33.226Z,69.71
2023-02-11T01:04:40.393Z,69.53
2023-02-11T01:05:00.238Z,69.81
2023-02-11T01:05:07.780Z,69.34
2023-02-11T01:05:16.335Z,69.51
2023-02-11T01:05:23.495Z,69.89
2023-02-11T01:05:31.125Z,69.84
2023-02-11T01:05:39.366Z,69.52
2023-02-11T01:05:53.652Z,69.54
2023-02-11T01:06:00.819Z,69.59
2023-02-11T01:06:08.763Z,69.85
2023-02-11T01:06:18.072Z,70.23
2023-02-11T01:06:32.375Z,69.88
2023-02-11T01:06:39.508Z,69.67
2023-02-11T01:06:59.776Z,69.67
2023-02-11T01:07:06.866Z,69.65
2023-02-11T01:07:14.016Z,69.74
2023-02-11T01:07:21.274Z,69.94
2023-02-11T01:07:29.557Z,69.86
2023-02-11T01:07:48.583Z,69.59
2023-02-11T01:07:56.522Z,69.79
2023-02-11T01:08:04.146Z,69.93
2023-02-11T01:08:11.229Z,69.77
2023-02-11T01:08:19.551Z,69.80
2023-02-11T01:08:39.545Z,69.96
2023-02-11T01:08:48.372Z,70.05
2023-02-11T01:08:55.534Z,69.74
2023-02-11T01:09:02.880Z,69.67
2023-02-11T01:09:09.972Z,69.86
2023-02-11T01:09:23.985Z,69.68
2023-02-11T01:09:32.150Z,69.81
2023-02-11T01:09:39.316Z,69.87
2023-02-11T01:09:58.456Z,69.90
2023-02-11T01:10:05.814Z,70.00
2023-02-11T01:10:12.904Z,69.81
2023-02-11T01:10:20.068Z,69.96
2023-02-11T01:10:34.410Z,69.71
2023-02-11T01:10:41.556Z,69.81
2023-02-11T01:10:54.012Z,70.01
2023-02-11T01:11:02.785Z,70.17
2023-02-11T01:11:13.792Z,69.76
2023-02-11T01:11:21.685Z,69.80
2023-02-11T01:11:29.021Z,69.72
2023-02-11T01:11:48.115Z,69.70
2023-02-11T01:11:55.526Z,69.81
2023-02-11T01:12:02.689Z,69.85
2023-02-11T01:12:10.781Z,69.69
2023-02-11T01:12:19.705Z,69.47
2023-02-11T01:12:36.283Z,69.28
2023-02-11T01:12:43.928Z,69.21
2023-02-11T01:12:51.038Z,69.61
2023-02-11T01:12:58.071Z,69.92
2023-02-11T01:13:13.877Z,69.48
2023-02-11T01:13:21.333Z,69.55
2023-02-11T01:13:30.335Z,69.70
2023-02-11T01:13:45.201Z,69.81
2023-02-11T01:13:52.734Z,69.70
2023-02-11T01:13:59.867Z,69.45
2023-02-11T01:14:18.997Z,69.41
2023-02-11T01:14:26.255Z,69.60
2023-02-11T01:14:33.522Z,69.32
2023-02-11T01:14:41.101Z,69.22
2023-02-11T01:14:48.721Z,69.85
2023-02-11T01:15:10.189Z,69.91
2023-02-11T01:15:18.807Z,69.79
2023-02-11T01:15:26.058Z,69.59
2023-02-11T01:15:33.649Z,69.87
2023-02-11T01:15:41.210Z,70.02
2023-02-11T01:15:49.811Z,69.77
2023-02-11T01:15:58.186Z,69.40
2023-02-11T01:16:14.990Z,69.51
2023-02-11T01:16:23.432Z,69.73
2023-02-11T01:16:32.000Z,69.61
2023-02-11T01:16:39.086Z,69.49
2023-02-11T01:16:53.657Z,69.33
2023-02-11T01:17:01.645Z,69.25
2023-02-11T01:17:08.781Z,69.46
2023-02-11T01:17:30.304Z,68.88
2023-02-11T01:17:37.640Z,69.35
2023-02-11T01:17:45.161Z,69.69
2023-02-11T01:17:53.329Z,69.29
2023-02-11T01:18:00.489Z,69.21
2023-02-11T01:18:19.527Z,69.66
2023-02-11T01:18:26.917Z,69.66
2023-02-11T01:18:34.208Z,69.50
2023-02-11T01:18:42.044Z,69.58
2023-02-11T01:18:50.358Z,69.48
2023-02-11T01:18:58.956Z,69.32
2023-02-11T01:19:13.580Z,69.39
2023-02-11T01:19:20.695Z,69.20
2023-02-11T01:19:27.876Z,69.58
2023-02-11T01:19:48.105Z,69.13
2023-02-11T01:19:55.385Z,69.20
2023-02-11T01:20:03.164Z,69.52
2023-02-11T01:20:14.433Z,69.56
2023-02-11T01:20:24.785Z,69.51
2023-02-11T01:20:32.280Z,69.36
2023-02-11T01:20:39.408Z,69.27
2023-02-11T01:20:53.933Z,69.38
2023-02-11T01:21:02.072Z,69.19
2023-02-11T01:21:09.145Z,69.38
2023-02-11T01:21:24.013Z,69.16
2023-02-11T01:21:31.588Z,69.22
2023-02-11T01:21:38.621Z,68.92
2023-02-11T01:21:52.739Z,69.04
2023-02-11T01:22:02.323Z,68.87
2023-02-11T01:22:09.529Z,68.72
2023-02-11T01:22:24.964Z,69.11
2023-02-11T01:22:32.133Z,68.85
2023-02-11T01:22:39.772Z,68.76
2023-02-11T01:22:55.774Z,68.76
2023-02-11T01:23:02.854Z,68.58
2023-02-11T01:23:10.001Z,68.73
2023-02-11T01:23:29.236Z,68.72
2023-02-11T01:23:36.386Z,68.77
2023-02-11T01:23:45.043Z,68.72
2023-02-11T01:23:53.362Z,68.76
2023-02-11T01:24:00.690Z,68.82
2023-02-11T01:24:07.921Z,68.82
2023-02-11T01:24:24.806Z,69.09
2023-02-11T01:24:31.934Z,68.74
2023-02-11T01:24:40.056Z,68.65
2023-02-11T01:24:48.143Z,68.88
2023-02-11T01:25:02.382Z,68.74
2023-02-11T01:25:09.892Z,69.05
2023-02-11T01:25:25.179Z,68.57
2023-02-11T01:25:32.369Z,68.96
2023-02-11T01:25:39.444Z,68.85
2023-02-11T01:25:58.924Z,68.79
2023-02-11T01:26:09.183Z,69.03
2023-02-11T01:26:16.427Z,68.80
2023-02-11T01:26:24.090Z,69.17
2023-02-11T01:26:32.313Z,69.04
2023-02-11T01:26:39.686Z,68.38
2023-02-11T01:26:58.754Z,68.94
2023-02-11T01:27:05.825Z,68.75
2023-02-11T01:27:12.885Z,68.65
2023-02-11T01:27:19.956Z,68.66
2023-02-11T01:27:34.350Z,68.37
2023-02-11T01:27:41.530Z,68.72
2023-02-11T01:27:48.653Z,68.51
2023-02-11T01:28:17.120Z,68.82
2023-02-11T01:28:25.352Z,68.66
2023-02-11T01:28:33.282Z,68.95
2023-02-11T01:28:40.567Z,68.76
2023-02-11T01:28:47.981Z,68.48
2023-02-11T01:28:55.272Z,68.88
2023-02-11T01:29:02.362Z,68.78
2023-02-11T01:29:09.565Z,68.56
2023-02-11T01:29:28.636Z,68.23
2023-02-11T01:29:36.838Z,68.55
2023-02-11T01:29:43.933Z,68.42
2023-02-11T01:29:51.043Z,68.82
2023-02-11T01:30:00.833Z,68.87
2023-02-11T01:30:09.261Z,68.86
2023-02-11T01:30:28.347Z,68.48
2023-02-11T01:30:35.405Z,68.50
2023-02-11T01:30:44.511Z,68.18
2023-02-11T01:30:51.918Z,68.37
2023-02-11T01:31:00.147Z,68.24
2023-02-11T01:31:08.389Z,68.20
2023-02-11T01:31:27.914Z,68.13
2023-02-11T01:31:35.168Z,67.87
2023-02-11T01:31:42.327Z,68.22
2023-02-11T01:31:49.545Z,68.31
2023-02-11T01:32:08.845Z,68.71
2023-02-11T01:32:15.999Z,68.68
2023-02-11T01:32:23.174Z,68.33
2023-02-11T01:32:30.238Z,68.46
2023-02-11T01:32:44.631Z,68.52
2023-02-11T01:32:52.728Z,68.26
2023-02-11T01:32:59.797Z,68.44
2023-02-11T01:33:14.355Z,68.54
2023-02-11T01:33:21.572Z,68.54
2023-02-11T01:33:28.685Z,68.31
2023-02-11T01:33:42.882Z,68.63
2023-02-11T01:33:50.244Z,68.88
2023-02-11T01:34:04.374Z,68.45
2023-02-11T01:34:11.707Z,68.61
2023-02-11T01:34:19.842Z,68.86
2023-02-11T01:34:39.240Z,68.44
2023-02-11T01:34:46.401Z,68.36
2023-02-11T01:34:53.605Z,68.56
2023-02-11T01:35:00.961Z,68.60
2023-02-11T01:35:08.755Z,68.02
2023-02-11T01:35:29.872Z,68.18
2023-02-11T01:35:38.106Z,67.96
2023-02-11T01:35:46.054Z,68.04
2023-02-11T01:35:53.897Z,68.38
2023-02-11T01:36:04.123Z,68.29
2023-02-11T01:36:12.035Z,67.94
2023-02-11T01:36:19.406Z,67.92
2023-02-11T01:36:33.800Z,68.37
2023-02-11T01:36:41.537Z,68.29
2023-02-11T01:36:48.612Z,68.45
2023-02-11T01:37:05.318Z,68.33
2023-02-11T01:37:12.963Z,68.32
2023-02-11T01:37:20.438Z,68.64
2023-02-11T01:37:29.610Z,68.42
2023-02-11T01:37:50.000Z,68.01
2023-02-11T01:37:58.400Z,68.56
2023-02-11T01:38:06.387Z,68.37
2023-02-11T01:38:20.354Z,68.42
2023-02-11T01:38:27.660Z,68.21
2023-02-11T01:38:35.190Z,68.19
2023-02-11T01:38:44.721Z,68.27
2023-02-11T01:38:52.982Z,68.43
2023-02-11T01:39:00.782Z,68.53
2023-02-11T01:39:08.769Z,68.21
2023-02-11T01:39:27.945Z,68.27
2023-02-11T01:39:35.312Z,68.58
2023-02-11T01:39:42.407Z,68.41
2023-02-11T01:39:49.499Z,68.26
2023-02-11T01:39:58.163Z,68.38
2023-02-11T01:40:08.557Z,68.37
2023-02-11T01:40:25.345Z,68.20
2023-02-11T01:40:32.564Z,68.05
2023-02-11T01:40:46.689Z,67.84
2023-02-11T01:40:55.254Z,68.26
2023-02-11T01:41:03.863Z,68.08
2023-02-11T01:41:15.888Z,68.32
2023-02-11T01:41:23.134Z,68.31
2023-02-11T01:41:30.227Z,68.51
2023-02-11T01:41:38.264Z,68.04
2023-02-11T01:41:57.685Z,68.13
2023-02-11T01:42:04.823Z,68.48
2023-02-11T01:42:15.890Z,68.19
2023-02-11T01:42:23.426Z,68.02
2023-02-11T01:42:31.283Z,68.04
2023-02-11T01:42:39.106Z,68.04
2023-02-11T01:42:55.230Z,67.99
2023-02-11T01:43:02.362Z,67.87
2023-02-11T01:43:10.699Z,67.95
2023-02-11T01:43:18.210Z,68.14
2023-02-11T01:43:40.329Z,67.73
2023-02-11T01:43:48.236Z,67.67
2023-02-11T01:43:55.329Z,67.75
2023-02-11T01:44:17.190Z,67.85
2023-02-11T01:44:26.375Z,68.06
2023-02-11T01:44:36.918Z,67.92
2023-02-11T01:44:44.474Z,68.03
2023-02-11T01:44:52.404Z,67.98
2023-02-11T01:45:00.545Z,67.94
2023-02-11T01:45:22.483Z,67.75
2023-02-11T01:45:56.606Z,68.44
2023-02-11T01:46:06.769Z,68.16
2023-02-11T01:46:28.894Z,68.01
2023-02-11T01:46:36.660Z,68.50
2023-02-11T01:46:44.170Z,68.21
2023-02-11T01:46:51.322Z,68.23
2023-02-11T01:47:00.017Z,68.13
2023-02-11T01:47:07.443Z,68.27
2023-02-11T01:47:14.591Z,68.16
2023-02-11T01:47:21.834Z,67.91
2023-02-11T01:47:29.279Z,68.38
2023-02-11T01:47:37.371Z,68.41
2023-02-11T01:47:44.424Z,68.43
2023-02-11T01:47:51.859Z,68.39
2023-02-11T01:47:58.894Z,68.57
2023-02-11T01:48:06.030Z,68.36
2023-02-11T01:48:14.180Z,68.18
2023-02-11T01:48:22.840Z,68.21
2023-02-11T01:48:32.258Z,68.14
2023-02-11T01:48:41.684Z,68.30
2023-02-11T01:48:50.617Z,68.00
2023-02-11T01:49:04.001Z,68.23
2023-02-11T01:49:12.572Z,68.27
2023-02-11T01:49:21.874Z,68.16
2023-02-11T01:49:32.287Z,67.87
2023-02-11T01:49:41.112Z,67.72
2023-02-11T01:49:50.938Z,67.96
2023-02-11T01:49:59.500Z,67.91
2023-02-11T01:50:08.258Z,68.12
2023-02-11T01:50:15.482Z,68.01
2023-02-11T01:50:22.664Z,67.64
2023-02-11T01:50:31.645Z,67.77
2023-02-11T01:50:42.435Z,68.12
2023-02-11T01:50:51.421Z,67.89
2023-02-11T01:51:01.578Z,68.18
2023-02-11T01:51:11.569Z,67.91
2023-02-11T01:51:22.158Z,68.00
2023-02-11T01:51:31.609Z,67.84
2023-02-11T01:51:40.475Z,67.99
2023-02-11T01:51:51.769Z,68.23
2023-02-11T01:52:02.544Z,67.84
2023-02-11T01:52:11.405Z,67.73
2023-02-11T01:52:22.265Z,67.48
2023-02-11T01:52:32.386Z,67.67
2023-02-11T01:52:41.187Z,68.22
2023-02-11T01:53:16.179Z,67.59
2023-02-11T01:53:43.653Z,67.78
2023-02-11T01:54:10.192Z,67.91
2023-02-11T01:54:53.572Z,67.56
2023-02-11T01:55:20.541Z,67.87
2023-02-11T01:56:02.015Z,67.50
2023-02-11T01:56:27.500Z,67.59
2023-02-11T01:56:55.177Z,67.90
2023-02-11T01:57:21.365Z,67.43
2023-02-11T01:57:30.894Z,67.66
2023-02-11T01:57:40.013Z,67.54
2023-02-11T01:57:49.010Z,68.00
2023-02-11T01:57:59.448Z,67.67
2023-02-11T01:58:07.069Z,67.49
2023-02-11T01:58:14.185Z,67.74
2023-02-11T01:58:21.441Z,67.85
2023-02-11T01:58:29.898Z,67.74
2023-02-11T01:58:39.459Z,67.53
2023-02-11T01:58:47.454Z,67.72
2023-02-11T01:58:56.620Z,67.69
2023-02-11T01:59:06.033Z,67.47
2023-02-11T01:59:15.270Z,67.82
2023-02-11T01:59:25.709Z,67.44
2023-02-11T01:59:35.007Z,67.83
2023-02-11T01:59:44.845Z,67.77
2023-02-11T02:00:00.395Z,67.84
2023-02-11T02:00:10.487Z,67.54
2023-02-11T02:00:25.801Z,67.26
2023-02-11T02:00:36.275Z,67.87
2023-02-11T02:00:43.790Z,67.60
2023-02-11T02:00:52.607Z,67.97
2023-02-11T02:01:01.213Z,68.01
2023-02-11T02:01:09.081Z,67.60
2023-02-11T02:01:18.387Z,67.94
2023-02-11T02:01:27.038Z,67.67
2023-02-11T02:01:34.939Z,67.58
2023-02-11T02:01:47.144Z,67.36
2023-02-11T02:01:57.611Z,67.49
2023-02-11T02:02:07.565Z,67.66
2023-02-11T02:02:18.160Z,67.67
2023-02-11T02:02:32.842Z,67.43
2023-02-11T02:02:49.311Z,67.45
2023-02-11T02:02:59.078Z,67.54
2023-02-11T02:03:08.399Z,67.52
2023-02-11T02:03:17.288Z,67.58
2023-02-11T02:03:25.800Z,67.53
2023-02-11T02:03:33.803Z,67.78
2023-02-11T02:03:42.714Z,67.45
2023-02-11T02:03:52.628Z,67.46
2023-02-11T02:04:02.599Z,67.53
2023-02-11T02:04:10.501Z,67.14
2023-02-11T02:04:19.008Z,67.75
2023-02-11T02:04:31.504Z,66.87
2023-02-11T02:04:41.514Z,67.32
2023-02-11T02:04:51.958Z,66.98
2023-02-11T02:05:02.094Z,67.11
2023-02-11T02:05:14.810Z,67.12
2023-02-11T02:05:25.148Z,67.36
2023-02-11T02:05:36.420Z,67.21
2023-02-11T02:05:45.982Z,67.24
2023-02-11T02:05:55.829Z,66.78
2023-02-11T02:06:07.313Z,67.20
2023-02-11T02:06:16.842Z,67.01
2023-02-11T02:06:26.788Z,67.20
2023-02-11T02:06:36.793Z,67.09
2023-02-11T02:06:46.405Z,67.10
2023-02-11T02:06:56.194Z,66.89
2023-02-11T02:07:05.587Z,66.83
2023-02-11T02:07:16.848Z,66.94
2023-02-11T02:07:29.057Z,66.97
2023-02-11T02:07:39.923Z,67.09
2023-02-11T02:07:52.884Z,66.88
2023-02-11T02:08:03.744Z,66.61
2023-02-11T02:08:15.421Z,66.42
2023-02-11T02:08:29.541Z,66.62
2023-02-11T02:08:38.560Z,66.83
2023-02-11T02:08:50.697Z,66.71
2023-02-11T02:09:01.473Z,66.81
2023-02-11T02:09:11.325Z,66.98
2023-02-11T02:09:20.757Z,67.08
2023-02-11T02:09:29.648Z,66.83
2023-02-11T02:09:39.875Z,67.02
2023-02-11T02:09:50.603Z,66.67
2023-02-11T02:10:00.708Z,67.11
2023-02-11T02:10:09.899Z,67.19
2023-02-11T02:10:19.654Z,67.34
2023-02-11T02:10:27.443Z,66.87
2023-02-11T02:10:35.784Z,67.16
2023-02-11T02:10:44.416Z,66.89
2023-02-11T02:10:56.266Z,66.62
2023-02-11T02:11:04.850Z,67.38
2023-02-11T02:11:12.096Z,66.99
2023-02-11T02:11:19.379Z,66.85
2023-02-11T02:11:26.529Z,66.83
2023-02-11T02:11:33.715Z,67.08
2023-02-11T02:11:40.815Z,66.84
2023-02-11T02:11:48.178Z,66.76